Ora Direzione Vento Velocita' Vento Media Vento Raffica Max. Temperatura Wind Chill Pioggia Pressione
18:36:03.0265 °(W)12.2 Kts12.2 Kts17.3 Kts17.6 °C10.1 °C0.0 mm1015.2 Hpa
17:47:25.0253 °(WSW)9.8 Kts10.3 Kts17.3 Kts18.7 °C12.2 °C0.0 mm1015.4 Hpa
17:47:25.0253 °(WSW)9.8 Kts10.3 Kts17.3 Kts18.7 °C12.2 °C0.0 mm1015.4 Hpa
17:32:42.0234 °(SW)8.9 Kts9.4 Kts17.3 Kts19.6 °C13.9 °C0.0 mm1015.2 Hpa
15:55:20.0246 °(WSW)12.7 Kts12.7 Kts17.3 Kts19.2 °C12.4 °C0.0 mm1015.9 Hpa
15:55:20.0246 °(WSW)12.7 Kts12.7 Kts17.3 Kts19.2 °C12.4 °C0.0 mm1015.9 Hpa
15:55:20.0246 °(WSW)12.7 Kts12.7 Kts17.3 Kts19.2 °C12.4 °C0.0 mm1015.9 Hpa
15:55:20.0246 °(WSW)12.7 Kts12.7 Kts17.3 Kts19.2 °C12.4 °C0.0 mm1015.9 Hpa
15:55:20.0246 °(WSW)12.7 Kts12.7 Kts17.3 Kts19.2 °C12.4 °C0.0 mm1015.9 Hpa
15:34:16.0232 °(SW)11.3 Kts11.3 Kts17.3 Kts20.2 °C14.1 °C0.0 mm1016.0 Hpa
15:15:17.0217 °(SW)11.3 Kts10.3 Kts17.3 Kts21.2 °C15.8 °C0.0 mm1016.1 Hpa
14:54:15.0213 °(SSW)10.8 Kts11.7 Kts17.3 Kts21.4 °C15.9 °C0.0 mm1016.2 Hpa
14:35:23.0225 °(SW)11.7 Kts11.3 Kts17.3 Kts21.2 °C15.6 °C0.0 mm1016.4 Hpa
14:14:22.0213 °(SSW)14.1 Kts13.1 Kts17.3 Kts20.7 °C14.5 °C0.0 mm1016.3 Hpa
13:55:25.0216 °(SW)14.1 Kts14.1 Kts17.3 Kts20.2 °C13.5 °C0.0 mm1016.2 Hpa
13:34:40.0207 °(SSW)15.9 Kts14.1 Kts17.3 Kts19.9 °C13.2 °C0.0 mm1016.4 Hpa
13:13:41.0199 °(SSW)13.1 Kts13.6 Kts17.3 Kts19.6 °C12.7 °C0.0 mm1016.5 Hpa
12:54:58.0209 °(SSW)12.7 Kts12.7 Kts17.3 Kts19.7 °C13.0 °C0.0 mm1016.5 Hpa
12:33:58.0213 °(SSW)13.1 Kts14.1 Kts17.3 Kts19.5 °C12.5 °C0.0 mm1016.6 Hpa
12:15:12.0195 °(SSW)13.1 Kts13.1 Kts16.9 Kts19.4 °C12.5 °C0.0 mm1016.6 Hpa